sensor_id;sensor_type;location;lat;lon;timestamp;P1;durP1;ratioP1;P2;durP2;ratioP2
42832;SDS011;64089;51.478;5.692;2023-03-23T00:01:21;3.17;;;2.05;;
42832;SDS011;64089;51.478;5.692;2023-03-23T00:03:48;4.70;;;2.03;;
42832;SDS011;64089;51.478;5.692;2023-03-23T00:06:16;3.30;;;2.03;;
42832;SDS011;64089;51.478;5.692;2023-03-23T00:08:46;9.73;;;2.42;;
42832;SDS011;64089;51.478;5.692;2023-03-23T00:11:23;3.47;;;2.28;;
42832;SDS011;64089;51.478;5.692;2023-03-23T00:13:54;3.92;;;2.00;;
42832;SDS011;64089;51.478;5.692;2023-03-23T00:16:23;3.78;;;1.83;;
42832;SDS011;64089;51.478;5.692;2023-03-23T00:19:04;9.68;;;2.67;;
42832;SDS011;64089;51.478;5.692;2023-03-23T00:21:31;3.13;;;2.17;;
42832;SDS011;64089;51.478;5.692;2023-03-23T00:26:32;4.05;;;2.10;;
42832;SDS011;64089;51.478;5.692;2023-03-23T00:29:03;8.45;;;1.98;;
42832;SDS011;64089;51.478;5.692;2023-03-23T00:31:29;4.13;;;2.47;;
42832;SDS011;64089;51.478;5.692;2023-03-23T00:33:58;3.00;;;2.40;;
42832;SDS011;64089;51.478;5.692;2023-03-23T00:36:26;3.63;;;1.85;;
42832;SDS011;64089;51.478;5.692;2023-03-23T00:38:53;6.22;;;1.80;;
42832;SDS011;64089;51.478;5.692;2023-03-23T00:41:19;5.72;;;2.20;;
42832;SDS011;64089;51.478;5.692;2023-03-23T00:43:45;3.95;;;2.13;;
42832;SDS011;64089;51.478;5.692;2023-03-23T00:46:11;4.35;;;2.10;;
42832;SDS011;64089;51.478;5.692;2023-03-23T00:48:36;5.35;;;1.92;;
42832;SDS011;64089;51.478;5.692;2023-03-23T00:51:09;3.92;;;2.20;;
42832;SDS011;64089;51.478;5.692;2023-03-23T00:53:36;4.63;;;2.47;;
42832;SDS011;64089;51.478;5.692;2023-03-23T00:56:02;3.78;;;2.38;;
42832;SDS011;64089;51.478;5.692;2023-03-23T00:58:27;3.35;;;2.20;;
42832;SDS011;64089;51.478;5.692;2023-03-23T01:00:53;3.58;;;2.15;;
42832;SDS011;64089;51.478;5.692;2023-03-23T01:03:19;6.22;;;2.75;;
42832;SDS011;64089;51.478;5.692;2023-03-23T01:05:45;5.15;;;1.90;;
42832;SDS011;64089;51.478;5.692;2023-03-23T01:08:16;3.63;;;2.67;;
42832;SDS011;64089;51.478;5.692;2023-03-23T01:10:43;3.00;;;2.05;;
42832;SDS011;64089;51.478;5.692;2023-03-23T01:13:10;5.53;;;2.55;;
42832;SDS011;64089;51.478;5.692;2023-03-23T01:15:36;7.63;;;2.28;;
42832;SDS011;64089;51.478;5.692;2023-03-23T01:18:01;4.38;;;2.40;;
42832;SDS011;64089;51.478;5.692;2023-03-23T01:20:27;4.72;;;2.05;;
42832;SDS011;64089;51.478;5.692;2023-03-23T01:22:56;4.53;;;2.38;;
42832;SDS011;64089;51.478;5.692;2023-03-23T01:25:28;2.13;;;1.70;;
42832;SDS011;64089;51.478;5.692;2023-03-23T01:27:55;4.50;;;1.90;;
42832;SDS011;64089;51.478;5.692;2023-03-23T01:30:20;3.45;;;2.20;;
42832;SDS011;64089;51.478;5.692;2023-03-23T01:32:46;5.25;;;2.05;;
42832;SDS011;64089;51.478;5.692;2023-03-23T01:35:12;3.53;;;2.08;;
42832;SDS011;64089;51.478;5.692;2023-03-23T01:37:38;4.45;;;1.98;;
42832;SDS011;64089;51.478;5.692;2023-03-23T01:40:04;9.75;;;2.10;;
42832;SDS011;64089;51.478;5.692;2023-03-23T01:42:32;4.35;;;2.28;;
42832;SDS011;64089;51.478;5.692;2023-03-23T01:45:45;3.30;;;2.05;;
42832;SDS011;64089;51.478;5.692;2023-03-23T01:47:53;5.40;;;2.58;;
42832;SDS011;64089;51.478;5.692;2023-03-23T01:50:26;2.88;;;1.80;;
42832;SDS011;64089;51.478;5.692;2023-03-23T01:52:55;4.38;;;2.00;;
42832;SDS011;64089;51.478;5.692;2023-03-23T01:55:24;8.88;;;2.85;;
42832;SDS011;64089;51.478;5.692;2023-03-23T01:57:52;4.75;;;1.95;;
42832;SDS011;64089;51.478;5.692;2023-03-23T02:00:20;4.07;;;2.25;;
42832;SDS011;64089;51.478;5.692;2023-03-23T02:02:47;3.90;;;2.15;;
42832;SDS011;64089;51.478;5.692;2023-03-23T02:05:31;8.65;;;2.33;;
42832;SDS011;64089;51.478;5.692;2023-03-23T02:08:02;3.25;;;2.20;;
42832;SDS011;64089;51.478;5.692;2023-03-23T02:10:30;4.25;;;2.42;;
42832;SDS011;64089;51.478;5.692;2023-03-23T02:12:58;4.78;;;2.20;;
42832;SDS011;64089;51.478;5.692;2023-03-23T02:15:26;3.42;;;2.05;;
42832;SDS011;64089;51.478;5.692;2023-03-23T02:20:40;8.93;;;1.83;;
42832;SDS011;64089;51.478;5.692;2023-03-23T02:35:20;3.70;;;2.30;;
42832;SDS011;64089;51.478;5.692;2023-03-23T02:37:57;3.90;;;1.92;;
42832;SDS011;64089;51.478;5.692;2023-03-23T02:40:30;4.70;;;2.45;;
42832;SDS011;64089;51.478;5.692;2023-03-23T02:43:01;4.60;;;2.25;;
42832;SDS011;64089;51.478;5.692;2023-03-23T02:45:29;4.35;;;2.17;;
42832;SDS011;64089;51.478;5.692;2023-03-23T02:47:57;3.50;;;2.10;;
42832;SDS011;64089;51.478;5.692;2023-03-23T02:50:25;3.42;;;2.38;;
42832;SDS011;64089;51.478;5.692;2023-03-23T02:52:55;4.93;;;2.38;;
42832;SDS011;64089;51.478;5.692;2023-03-23T02:55:23;6.28;;;2.25;;
42832;SDS011;64089;51.478;5.692;2023-03-23T02:57:50;4.32;;;2.42;;
42832;SDS011;64089;51.478;5.692;2023-03-23T03:00:17;4.53;;;2.08;;
42832;SDS011;64089;51.478;5.692;2023-03-23T03:02:50;4.25;;;2.38;;
42832;SDS011;64089;51.478;5.692;2023-03-23T03:08:22;5.78;;;2.45;;
42832;SDS011;64089;51.478;5.692;2023-03-23T03:11:19;4.55;;;2.25;;
42832;SDS011;64089;51.478;5.692;2023-03-23T03:13:59;4.30;;;2.13;;
42832;SDS011;64089;51.478;5.692;2023-03-23T03:17:01;4.63;;;2.50;;
42832;SDS011;64089;51.478;5.692;2023-03-23T03:19:35;3.40;;;2.20;;
42832;SDS011;64089;51.478;5.692;2023-03-23T03:22:05;4.40;;;3.08;;
42832;SDS011;64089;51.478;5.692;2023-03-23T03:24:33;3.38;;;2.10;;
42832;SDS011;64089;51.478;5.692;2023-03-23T03:26:59;5.50;;;2.20;;
42832;SDS011;64089;51.478;5.692;2023-03-23T03:29:33;9.32;;;3.10;;
42832;SDS011;64089;51.478;5.692;2023-03-23T03:32:01;5.53;;;2.40;;
42832;SDS011;64089;51.478;5.692;2023-03-23T03:34:31;3.65;;;2.50;;
42832;SDS011;64089;51.478;5.692;2023-03-23T03:36:58;3.42;;;2.00;;
42832;SDS011;64089;51.478;5.692;2023-03-23T03:39:25;3.25;;;2.00;;
42832;SDS011;64089;51.478;5.692;2023-03-23T03:41:51;6.47;;;2.85;;
42832;SDS011;64089;51.478;5.692;2023-03-23T03:44:17;4.00;;;2.40;;
42832;SDS011;64089;51.478;5.692;2023-03-23T03:46:43;3.53;;;2.08;;
42832;SDS011;64089;51.478;5.692;2023-03-23T03:49:09;5.55;;;2.55;;
42832;SDS011;64089;51.478;5.692;2023-03-23T03:51:38;3.38;;;2.00;;
42832;SDS011;64089;51.478;5.692;2023-03-23T03:54:05;5.25;;;2.50;;
42832;SDS011;64089;51.478;5.692;2023-03-23T03:56:31;9.00;;;3.22;;
42832;SDS011;64089;51.478;5.692;2023-03-23T03:58:58;4.35;;;2.35;;
42832;SDS011;64089;51.478;5.692;2023-03-23T04:01:24;2.95;;;2.00;;
42832;SDS011;64089;51.478;5.692;2023-03-23T04:03:50;3.47;;;2.10;;
42832;SDS011;64089;51.478;5.692;2023-03-23T04:06:16;4.78;;;2.38;;
42832;SDS011;64089;51.478;5.692;2023-03-23T04:08:43;5.13;;;2.17;;
42832;SDS011;64089;51.478;5.692;2023-03-23T04:11:10;5.40;;;1.90;;
42832;SDS011;64089;51.478;5.692;2023-03-23T04:13:37;4.07;;;1.98;;
42832;SDS011;64089;51.478;5.692;2023-03-23T04:16:03;6.28;;;2.17;;
42832;SDS011;64089;51.478;5.692;2023-03-23T04:18:29;2.78;;;1.55;;
42832;SDS011;64089;51.478;5.692;2023-03-23T04:20:57;5.65;;;2.38;;
42832;SDS011;64089;51.478;5.692;2023-03-23T04:23:24;5.25;;;1.95;;
42832;SDS011;64089;51.478;5.692;2023-03-23T04:25:52;5.35;;;2.33;;
42832;SDS011;64089;51.478;5.692;2023-03-23T04:28:22;6.63;;;2.03;;
42832;SDS011;64089;51.478;5.692;2023-03-23T04:30:49;4.75;;;1.75;;
42832;SDS011;64089;51.478;5.692;2023-03-23T04:33:18;4.22;;;1.70;;
42832;SDS011;64089;51.478;5.692;2023-03-23T04:35:46;3.72;;;1.30;;
42832;SDS011;64089;51.478;5.692;2023-03-23T04:38:13;5.05;;;1.63;;
42832;SDS011;64089;51.478;5.692;2023-03-23T04:40:41;4.80;;;1.60;;
42832;SDS011;64089;51.478;5.692;2023-03-23T04:43:08;3.72;;;1.23;;
42832;SDS011;64089;51.478;5.692;2023-03-23T04:45:37;6.00;;;1.67;;
42832;SDS011;64089;51.478;5.692;2023-03-23T04:48:06;5.78;;;1.42;;
42832;SDS011;64089;51.478;5.692;2023-03-23T04:50:33;5.45;;;1.38;;
42832;SDS011;64089;51.478;5.692;2023-03-23T04:53:00;8.32;;;1.83;;
42832;SDS011;64089;51.478;5.692;2023-03-23T04:55:33;3.92;;;1.50;;
42832;SDS011;64089;51.478;5.692;2023-03-23T04:58:04;6.55;;;1.83;;
42832;SDS011;64089;51.478;5.692;2023-03-23T05:00:31;9.35;;;1.83;;
42832;SDS011;64089;51.478;5.692;2023-03-23T05:02:58;5.68;;;1.75;;
42832;SDS011;64089;51.478;5.692;2023-03-23T05:05:24;4.15;;;1.55;;
42832;SDS011;64089;51.478;5.692;2023-03-23T05:07:50;9.68;;;1.88;;
42832;SDS011;64089;51.478;5.692;2023-03-23T05:10:16;4.50;;;1.35;;
42832;SDS011;64089;51.478;5.692;2023-03-23T05:12:42;7.95;;;2.45;;
42832;SDS011;64089;51.478;5.692;2023-03-23T05:15:09;5.63;;;1.92;;
42832;SDS011;64089;51.478;5.692;2023-03-23T05:17:39;3.67;;;1.40;;
42832;SDS011;64089;51.478;5.692;2023-03-23T05:20:12;5.78;;;1.48;;
42832;SDS011;64089;51.478;5.692;2023-03-23T05:22:39;4.07;;;1.63;;
42832;SDS011;64089;51.478;5.692;2023-03-23T05:25:07;5.90;;;1.10;;
42832;SDS011;64089;51.478;5.692;2023-03-23T05:27:36;7.15;;;2.13;;
42832;SDS011;64089;51.478;5.692;2023-03-23T05:30:03;3.03;;;1.50;;
42832;SDS011;64089;51.478;5.692;2023-03-23T05:32:30;5.57;;;2.10;;
42832;SDS011;64089;51.478;5.692;2023-03-23T05:34:56;5.15;;;1.75;;
42832;SDS011;64089;51.478;5.692;2023-03-23T05:37:23;11.57;;;1.88;;
42832;SDS011;64089;51.478;5.692;2023-03-23T05:39:50;10.32;;;2.42;;
42832;SDS011;64089;51.478;5.692;2023-03-23T05:42:21;7.75;;;1.83;;
42832;SDS011;64089;51.478;5.692;2023-03-23T05:44:48;6.35;;;2.30;;
42832;SDS011;64089;51.478;5.692;2023-03-23T05:47:14;7.75;;;2.30;;
42832;SDS011;64089;51.478;5.692;2023-03-23T05:49:40;9.15;;;2.15;;
42832;SDS011;64089;51.478;5.692;2023-03-23T05:52:06;5.63;;;2.10;;
42832;SDS011;64089;51.478;5.692;2023-03-23T05:54:32;5.70;;;2.10;;
42832;SDS011;64089;51.478;5.692;2023-03-23T05:56:59;10.20;;;2.28;;
42832;SDS011;64089;51.478;5.692;2023-03-23T05:59:24;9.60;;;2.67;;
42832;SDS011;64089;51.478;5.692;2023-03-23T06:01:53;3.25;;;1.75;;
42832;SDS011;64089;51.478;5.692;2023-03-23T06:04:19;6.97;;;2.83;;
42832;SDS011;64089;51.478;5.692;2023-03-23T06:06:45;5.53;;;2.00;;
42832;SDS011;64089;51.478;5.692;2023-03-23T06:09:11;5.88;;;2.33;;
42832;SDS011;64089;51.478;5.692;2023-03-23T06:11:37;3.30;;;1.60;;
42832;SDS011;64089;51.478;5.692;2023-03-23T06:14:03;11.40;;;2.58;;
42832;SDS011;64089;51.478;5.692;2023-03-23T06:16:28;6.75;;;1.98;;
42832;SDS011;64089;51.478;5.692;2023-03-23T06:18:54;5.90;;;1.85;;
42832;SDS011;64089;51.478;5.692;2023-03-23T06:21:22;7.57;;;2.05;;
42832;SDS011;64089;51.478;5.692;2023-03-23T06:23:48;14.50;;;2.80;;
42832;SDS011;64089;51.478;5.692;2023-03-23T06:26:14;9.52;;;1.63;;
42832;SDS011;64089;51.478;5.692;2023-03-23T06:28:42;10.30;;;2.47;;
42832;SDS011;64089;51.478;5.692;2023-03-23T06:31:08;17.52;;;1.73;;
42832;SDS011;64089;51.478;5.692;2023-03-23T06:33:35;8.68;;;2.25;;
42832;SDS011;64089;51.478;5.692;2023-03-23T06:36:02;6.30;;;2.75;;
42832;SDS011;64089;51.478;5.692;2023-03-23T06:38:29;5.45;;;1.65;;
42832;SDS011;64089;51.478;5.692;2023-03-23T06:40:55;5.30;;;1.60;;
42832;SDS011;64089;51.478;5.692;2023-03-23T06:43:24;2.95;;;1.73;;
42832;SDS011;64089;51.478;5.692;2023-03-23T06:45:50;4.88;;;1.90;;
42832;SDS011;64089;51.478;5.692;2023-03-23T06:48:16;5.95;;;2.53;;
42832;SDS011;64089;51.478;5.692;2023-03-23T06:50:45;5.18;;;1.90;;
42832;SDS011;64089;51.478;5.692;2023-03-23T06:53:11;4.45;;;1.67;;
42832;SDS011;64089;51.478;5.692;2023-03-23T06:55:38;10.43;;;1.30;;
42832;SDS011;64089;51.478;5.692;2023-03-23T06:58:07;5.68;;;1.65;;
42832;SDS011;64089;51.478;5.692;2023-03-23T07:00:33;3.88;;;1.23;;
42832;SDS011;64089;51.478;5.692;2023-03-23T07:02:59;1.60;;;0.95;;
42832;SDS011;64089;51.478;5.692;2023-03-23T07:05:24;4.80;;;1.23;;
42832;SDS011;64089;51.478;5.692;2023-03-23T07:07:51;2.58;;;1.20;;
42832;SDS011;64089;51.478;5.692;2023-03-23T07:10:17;4.97;;;1.35;;
42832;SDS011;64089;51.478;5.692;2023-03-23T07:12:43;3.10;;;1.20;;
42832;SDS011;64089;51.478;5.692;2023-03-23T07:15:09;9.60;;;2.30;;
42832;SDS011;64089;51.478;5.692;2023-03-23T07:17:36;3.78;;;1.77;;
42832;SDS011;64089;51.478;5.692;2023-03-23T07:20:03;6.25;;;1.65;;
42832;SDS011;64089;51.478;5.692;2023-03-23T07:22:29;4.90;;;1.50;;
42832;SDS011;64089;51.478;5.692;2023-03-23T07:24:56;6.38;;;1.30;;
42832;SDS011;64089;51.478;5.692;2023-03-23T07:27:21;5.45;;;1.35;;
42832;SDS011;64089;51.478;5.692;2023-03-23T07:29:47;1.33;;;0.80;;
42832;SDS011;64089;51.478;5.692;2023-03-23T07:32:12;5.65;;;2.00;;
42832;SDS011;64089;51.478;5.692;2023-03-23T07:34:38;2.50;;;1.20;;
42832;SDS011;64089;51.478;5.692;2023-03-23T07:37:04;9.95;;;1.55;;
42832;SDS011;64089;51.478;5.692;2023-03-23T07:39:30;9.95;;;1.80;;
42832;SDS011;64089;51.478;5.692;2023-03-23T07:41:56;6.18;;;1.60;;
42832;SDS011;64089;51.478;5.692;2023-03-23T07:44:22;3.17;;;1.58;;
42832;SDS011;64089;51.478;5.692;2023-03-23T07:46:48;3.22;;;1.45;;
42832;SDS011;64089;51.478;5.692;2023-03-23T07:49:14;2.10;;;1.70;;
42832;SDS011;64089;51.478;5.692;2023-03-23T07:51:40;8.30;;;1.80;;
42832;SDS011;64089;51.478;5.692;2023-03-23T07:54:06;7.05;;;1.92;;
42832;SDS011;64089;51.478;5.692;2023-03-23T07:56:35;3.63;;;1.52;;
42832;SDS011;64089;51.478;5.692;2023-03-23T07:59:02;7.82;;;2.10;;
42832;SDS011;64089;51.478;5.692;2023-03-23T08:01:29;7.20;;;1.70;;
42832;SDS011;64089;51.478;5.692;2023-03-23T08:03:55;5.78;;;1.30;;
42832;SDS011;64089;51.478;5.692;2023-03-23T08:06:23;0.98;;;0.80;;
42832;SDS011;64089;51.478;5.692;2023-03-23T08:08:49;5.93;;;1.40;;
42832;SDS011;64089;51.478;5.692;2023-03-23T08:11:15;1.08;;;0.93;;
42832;SDS011;64089;51.478;5.692;2023-03-23T08:13:42;5.40;;;1.60;;
42832;SDS011;64089;51.478;5.692;2023-03-23T08:16:08;2.92;;;1.10;;
42832;SDS011;64089;51.478;5.692;2023-03-23T08:18:34;5.72;;;1.00;;
42832;SDS011;64089;51.478;5.692;2023-03-23T08:21:02;3.80;;;1.27;;
42832;SDS011;64089;51.478;5.692;2023-03-23T08:23:29;4.07;;;1.08;;
42832;SDS011;64089;51.478;5.692;2023-03-23T08:25:56;1.40;;;0.85;;
42832;SDS011;64089;51.478;5.692;2023-03-23T08:28:22;4.07;;;1.02;;
42832;SDS011;64089;51.478;5.692;2023-03-23T08:30:48;1.85;;;1.00;;
42832;SDS011;64089;51.478;5.692;2023-03-23T08:33:14;3.53;;;1.00;;
42832;SDS011;64089;51.478;5.692;2023-03-23T08:35:40;2.45;;;1.17;;
42832;SDS011;64089;51.478;5.692;2023-03-23T08:38:07;4.45;;;0.80;;
42832;SDS011;64089;51.478;5.692;2023-03-23T08:40:33;1.65;;;0.80;;
42832;SDS011;64089;51.478;5.692;2023-03-23T08:42:59;2.60;;;0.57;;
42832;SDS011;64089;51.478;5.692;2023-03-23T08:45:25;2.35;;;0.90;;
42832;SDS011;64089;51.478;5.692;2023-03-23T08:47:51;0.60;;;0.60;;
42832;SDS011;64089;51.478;5.692;2023-03-23T08:50:21;1.20;;;0.70;;
42832;SDS011;64089;51.478;5.692;2023-03-23T08:52:49;10.90;;;0.80;;
42832;SDS011;64089;51.478;5.692;2023-03-23T08:55:15;1.88;;;1.23;;
42832;SDS011;64089;51.478;5.692;2023-03-23T08:57:42;6.18;;;0.70;;
42832;SDS011;64089;51.478;5.692;2023-03-23T09:00:10;4.85;;;0.98;;
42832;SDS011;64089;51.478;5.692;2023-03-23T09:02:43;7.85;;;0.77;;
42832;SDS011;64089;51.478;5.692;2023-03-23T09:05:13;2.90;;;0.82;;
42832;SDS011;64089;51.478;5.692;2023-03-23T09:07:41;19.85;;;8.27;;
42832;SDS011;64089;51.478;5.692;2023-03-23T09:10:10;18.92;;;9.18;;
42832;SDS011;64089;51.478;5.692;2023-03-23T09:12:36;43.35;;;16.95;;
42832;SDS011;64089;51.478;5.692;2023-03-23T09:15:03;49.40;;;19.92;;
42832;SDS011;64089;51.478;5.692;2023-03-23T09:20:04;3.22;;;2.05;;
42832;SDS011;64089;51.478;5.692;2023-03-23T09:22:38;3.88;;;1.00;;
42832;SDS011;64089;51.478;5.692;2023-03-23T09:25:05;4.20;;;1.10;;
42832;SDS011;64089;51.478;5.692;2023-03-23T09:27:32;1.25;;;0.60;;
42832;SDS011;64089;51.478;5.692;2023-03-23T09:29:58;1.75;;;0.80;;
42832;SDS011;64089;51.478;5.692;2023-03-23T09:32:24;3.75;;;0.80;;
42832;SDS011;64089;51.478;5.692;2023-03-23T09:34:49;4.40;;;0.93;;
42832;SDS011;64089;51.478;5.692;2023-03-23T09:37:16;6.00;;;1.10;;
42832;SDS011;64089;51.478;5.692;2023-03-23T09:39:42;0.73;;;0.57;;
42832;SDS011;64089;51.478;5.692;2023-03-23T09:42:11;2.38;;;1.20;;
42832;SDS011;64089;51.478;5.692;2023-03-23T09:45:12;2.72;;;1.00;;
42832;SDS011;64089;51.478;5.692;2023-03-23T09:51:11;1.10;;;0.70;;
42832;SDS011;64089;51.478;5.692;2023-03-23T09:53:42;3.70;;;0.80;;
42832;SDS011;64089;51.478;5.692;2023-03-23T09:56:11;6.60;;;0.88;;
42832;SDS011;64089;51.478;5.692;2023-03-23T09:58:45;1.05;;;0.80;;
42832;SDS011;64089;51.478;5.692;2023-03-23T10:01:26;2.20;;;0.90;;
42832;SDS011;64089;51.478;5.692;2023-03-23T10:03:53;5.10;;;0.80;;
42832;SDS011;64089;51.478;5.692;2023-03-23T10:06:26;26.20;;;13.27;;
42832;SDS011;64089;51.478;5.692;2023-03-23T10:08:53;12.50;;;5.00;;
42832;SDS011;64089;51.478;5.692;2023-03-23T10:17:00;7.10;;;2.17;;
42832;SDS011;64089;51.478;5.692;2023-03-23T10:19:47;5.43;;;1.13;;
42832;SDS011;64089;51.478;5.692;2023-03-23T10:22:35;5.35;;;1.27;;
42832;SDS011;64089;51.478;5.692;2023-03-23T10:25:19;3.88;;;1.05;;
42832;SDS011;64089;51.478;5.692;2023-03-23T10:27:50;7.60;;;1.20;;
42832;SDS011;64089;51.478;5.692;2023-03-23T10:32:58;3.60;;;1.20;;
42832;SDS011;64089;51.478;5.692;2023-03-23T10:35:29;5.60;;;1.10;;
42832;SDS011;64089;51.478;5.692;2023-03-23T10:38:10;4.95;;;1.05;;
42832;SDS011;64089;51.478;5.692;2023-03-23T10:40:45;4.72;;;1.65;;
42832;SDS011;64089;51.478;5.692;2023-03-23T10:43:18;4.20;;;1.52;;
42832;SDS011;64089;51.478;5.692;2023-03-23T10:45:45;5.43;;;1.25;;
42832;SDS011;64089;51.478;5.692;2023-03-23T10:48:23;9.68;;;2.15;;
42832;SDS011;64089;51.478;5.692;2023-03-23T10:50:54;8.80;;;1.85;;
42832;SDS011;64089;51.478;5.692;2023-03-23T10:53:25;10.23;;;1.20;;
42832;SDS011;64089;51.478;5.692;2023-03-23T10:55:57;4.07;;;1.17;;
42832;SDS011;64089;51.478;5.692;2023-03-23T10:58:25;8.40;;;1.30;;
42832;SDS011;64089;51.478;5.692;2023-03-23T11:00:57;7.28;;;1.58;;
42832;SDS011;64089;51.478;5.692;2023-03-23T11:03:47;3.30;;;1.25;;
42832;SDS011;64089;51.478;5.692;2023-03-23T11:06:24;5.63;;;1.23;;
42832;SDS011;64089;51.478;5.692;2023-03-23T11:08:56;7.35;;;1.90;;
42832;SDS011;64089;51.478;5.692;2023-03-23T11:11:29;7.72;;;1.05;;
42832;SDS011;64089;51.478;5.692;2023-03-23T11:14:00;4.93;;;1.20;;
42832;SDS011;64089;51.478;5.692;2023-03-23T11:16:29;7.93;;;1.67;;
42832;SDS011;64089;51.478;5.692;2023-03-23T11:18:57;4.80;;;1.15;;
42832;SDS011;64089;51.478;5.692;2023-03-23T11:21:24;2.72;;;1.23;;
42832;SDS011;64089;51.478;5.692;2023-03-23T11:23:55;7.93;;;1.27;;
42832;SDS011;64089;51.478;5.692;2023-03-23T11:26:27;3.22;;;1.23;;
42832;SDS011;64089;51.478;5.692;2023-03-23T11:31:44;3.45;;;0.80;;
42832;SDS011;64089;51.478;5.692;2023-03-23T11:39:25;4.63;;;0.88;;
42832;SDS011;64089;51.478;5.692;2023-03-23T11:41:51;4.30;;;1.02;;
42832;SDS011;64089;51.478;5.692;2023-03-23T11:44:17;4.40;;;1.10;;
42832;SDS011;64089;51.478;5.692;2023-03-23T11:47:07;3.53;;;0.70;;
42832;SDS011;64089;51.478;5.692;2023-03-23T11:52:39;28.15;;;12.45;;
42832;SDS011;64089;51.478;5.692;2023-03-23T11:55:14;24.00;;;11.57;;
42832;SDS011;64089;51.478;5.692;2023-03-23T11:57:44;18.65;;;7.90;;
42832;SDS011;64089;51.478;5.692;2023-03-23T12:00:14;24.85;;;10.23;;
42832;SDS011;64089;51.478;5.692;2023-03-23T12:02:50;6.78;;;2.70;;
42832;SDS011;64089;51.478;5.692;2023-03-23T12:08:24;4.22;;;1.50;;
42832;SDS011;64089;51.478;5.692;2023-03-23T12:19:37;5.28;;;1.17;;
42832;SDS011;64089;51.478;5.692;2023-03-23T12:30:30;6.13;;;1.15;;
42832;SDS011;64089;51.478;5.692;2023-03-23T12:44:00;2.38;;;0.98;;
42832;SDS011;64089;51.478;5.692;2023-03-23T12:57:31;2.47;;;1.00;;
42832;SDS011;64089;51.478;5.692;2023-03-23T13:03:54;2.60;;;1.42;;
42832;SDS011;64089;51.478;5.692;2023-03-23T13:06:40;5.15;;;1.52;;
42832;SDS011;64089;51.478;5.692;2023-03-23T13:09:32;6.78;;;1.40;;
42832;SDS011;64089;51.478;5.692;2023-03-23T13:12:12;3.47;;;1.15;;
42832;SDS011;64089;51.478;5.692;2023-03-23T13:22:41;5.65;;;1.60;;
42832;SDS011;64089;51.478;5.692;2023-03-23T13:25:29;9.07;;;1.60;;
42832;SDS011;64089;51.478;5.692;2023-03-23T13:27:57;5.57;;;1.85;;
42832;SDS011;64089;51.478;5.692;2023-03-23T13:30:25;8.55;;;1.23;;
42832;SDS011;64089;51.478;5.692;2023-03-23T13:33:00;4.22;;;1.55;;
42832;SDS011;64089;51.478;5.692;2023-03-23T13:35:34;4.47;;;1.27;;
42832;SDS011;64089;51.478;5.692;2023-03-23T13:38:10;6.07;;;2.13;;
42832;SDS011;64089;51.478;5.692;2023-03-23T13:40:42;6.35;;;1.92;;
42832;SDS011;64089;51.478;5.692;2023-03-23T13:43:09;3.58;;;1.33;;
42832;SDS011;64089;51.478;5.692;2023-03-23T13:45:42;3.42;;;1.38;;
42832;SDS011;64089;51.478;5.692;2023-03-23T13:53:28;10.50;;;1.52;;
42832;SDS011;64089;51.478;5.692;2023-03-23T13:56:14;6.93;;;2.08;;
42832;SDS011;64089;51.478;5.692;2023-03-23T13:58:52;6.80;;;2.30;;
42832;SDS011;64089;51.478;5.692;2023-03-23T14:01:33;3.88;;;2.08;;
42832;SDS011;64089;51.478;5.692;2023-03-23T14:04:03;6.70;;;2.17;;
42832;SDS011;64089;51.478;5.692;2023-03-23T14:06:34;6.88;;;2.00;;
42832;SDS011;64089;51.478;5.692;2023-03-23T14:09:05;12.35;;;2.63;;
42832;SDS011;64089;51.478;5.692;2023-03-23T14:11:45;5.75;;;2.28;;
42832;SDS011;64089;51.478;5.692;2023-03-23T14:14:44;8.07;;;2.08;;
42832;SDS011;64089;51.478;5.692;2023-03-23T14:19:38;4.32;;;1.50;;
42832;SDS011;64089;51.478;5.692;2023-03-23T14:22:16;6.10;;;2.50;;
42832;SDS011;64089;51.478;5.692;2023-03-23T14:24:44;9.60;;;2.10;;
42832;SDS011;64089;51.478;5.692;2023-03-23T14:29:43;9.50;;;2.05;;
42832;SDS011;64089;51.478;5.692;2023-03-23T14:32:14;5.18;;;1.88;;
42832;SDS011;64089;51.478;5.692;2023-03-23T14:34:43;7.43;;;2.08;;
42832;SDS011;64089;51.478;5.692;2023-03-23T14:37:11;11.25;;;1.92;;
42832;SDS011;64089;51.478;5.692;2023-03-23T14:39:39;9.15;;;1.80;;
42832;SDS011;64089;51.478;5.692;2023-03-23T14:42:13;6.10;;;2.00;;
42832;SDS011;64089;51.478;5.692;2023-03-23T14:44:41;14.65;;;2.92;;
42832;SDS011;64089;51.478;5.692;2023-03-23T14:47:16;6.20;;;1.92;;
42832;SDS011;64089;51.478;5.692;2023-03-23T14:49:46;8.50;;;1.70;;
42832;SDS011;64089;51.478;5.692;2023-03-23T14:52:16;6.18;;;1.80;;
42832;SDS011;64089;51.478;5.692;2023-03-23T14:54:43;6.60;;;2.53;;
42832;SDS011;64089;51.478;5.692;2023-03-23T14:57:14;6.28;;;1.58;;
42832;SDS011;64089;51.478;5.692;2023-03-23T14:59:42;6.35;;;1.85;;
42832;SDS011;64089;51.478;5.692;2023-03-23T15:02:13;7.75;;;1.63;;
42832;SDS011;64089;51.478;5.692;2023-03-23T15:04:50;5.82;;;2.10;;
42832;SDS011;64089;51.478;5.692;2023-03-23T15:07:21;14.73;;;5.15;;
42832;SDS011;64089;51.478;5.692;2023-03-23T15:09:51;13.85;;;4.95;;
42832;SDS011;64089;51.478;5.692;2023-03-23T15:12:23;16.73;;;6.03;;
42832;SDS011;64089;51.478;5.692;2023-03-23T15:14:52;21.30;;;5.70;;
42832;SDS011;64089;51.478;5.692;2023-03-23T15:17:30;14.60;;;5.13;;
42832;SDS011;64089;51.478;5.692;2023-03-23T15:20:06;4.13;;;1.90;;
42832;SDS011;64089;51.478;5.692;2023-03-23T15:22:47;7.85;;;2.05;;
42832;SDS011;64089;51.478;5.692;2023-03-23T15:25:29;9.25;;;1.88;;
42832;SDS011;64089;51.478;5.692;2023-03-23T15:28:19;4.10;;;1.80;;
42832;SDS011;64089;51.478;5.692;2023-03-23T15:30:48;7.22;;;2.40;;
42832;SDS011;64089;51.478;5.692;2023-03-23T15:33:15;10.93;;;2.08;;
42832;SDS011;64089;51.478;5.692;2023-03-23T15:35:49;7.00;;;2.00;;
42832;SDS011;64089;51.478;5.692;2023-03-23T15:40:49;5.18;;;1.65;;
42832;SDS011;64089;51.478;5.692;2023-03-23T15:43:28;7.75;;;2.47;;
42832;SDS011;64089;51.478;5.692;2023-03-23T15:45:58;7.13;;;2.22;;
42832;SDS011;64089;51.478;5.692;2023-03-23T15:48:28;9.37;;;1.90;;
42832;SDS011;64089;51.478;5.692;2023-03-23T15:50:55;6.07;;;2.03;;
42832;SDS011;64089;51.478;5.692;2023-03-23T15:53:30;5.25;;;1.95;;
42832;SDS011;64089;51.478;5.692;2023-03-23T15:56:03;10.90;;;2.10;;
42832;SDS011;64089;51.478;5.692;2023-03-23T15:58:30;8.70;;;2.67;;
42832;SDS011;64089;51.478;5.692;2023-03-23T16:00:57;10.45;;;2.55;;
42832;SDS011;64089;51.478;5.692;2023-03-23T16:03:27;14.23;;;2.72;;
42832;SDS011;64089;51.478;5.692;2023-03-23T16:05:56;9.77;;;2.30;;
42832;SDS011;64089;51.478;5.692;2023-03-23T16:08:24;21.60;;;2.92;;
42832;SDS011;64089;51.478;5.692;2023-03-23T16:10:50;10.27;;;2.15;;
42832;SDS011;64089;51.478;5.692;2023-03-23T16:13:15;5.55;;;2.08;;
42832;SDS011;64089;51.478;5.692;2023-03-23T16:15:42;5.60;;;2.13;;
42832;SDS011;64089;51.478;5.692;2023-03-23T16:18:13;6.78;;;1.75;;
42832;SDS011;64089;51.478;5.692;2023-03-23T16:20:43;9.35;;;2.20;;
42832;SDS011;64089;51.478;5.692;2023-03-23T16:23:08;5.70;;;1.17;;
42832;SDS011;64089;51.478;5.692;2023-03-23T16:25:34;8.50;;;2.17;;
42832;SDS011;64089;51.478;5.692;2023-03-23T16:28:00;9.88;;;1.65;;
42832;SDS011;64089;51.478;5.692;2023-03-23T16:30:27;8.23;;;2.05;;
42832;SDS011;64089;51.478;5.692;2023-03-23T16:32:54;3.72;;;2.13;;
42832;SDS011;64089;51.478;5.692;2023-03-23T16:35:19;8.43;;;2.33;;
42832;SDS011;64089;51.478;5.692;2023-03-23T16:37:49;8.20;;;2.15;;
42832;SDS011;64089;51.478;5.692;2023-03-23T16:40:17;11.10;;;2.83;;
42832;SDS011;64089;51.478;5.692;2023-03-23T16:42:44;9.93;;;2.30;;
42832;SDS011;64089;51.478;5.692;2023-03-23T16:45:10;6.45;;;1.85;;
42832;SDS011;64089;51.478;5.692;2023-03-23T16:47:37;3.50;;;1.75;;
42832;SDS011;64089;51.478;5.692;2023-03-23T16:50:03;8.90;;;2.10;;
42832;SDS011;64089;51.478;5.692;2023-03-23T16:52:31;3.58;;;1.60;;